createdAt,value
2023-03-15T14:41:13.743Z,448.10
2023-03-15T14:41:24.906Z,444.40
2023-03-15T14:41:35.064Z,431.40
2023-03-15T14:41:45.210Z,372.40
2023-03-15T14:41:55.289Z,395.40
2023-03-15T14:42:05.375Z,385.90
2023-03-15T14:42:15.510Z,384.50
2023-03-15T14:42:25.584Z,401.70
2023-03-15T14:42:35.767Z,416.60
2023-03-15T14:42:45.850Z,429.40
2023-03-15T14:42:56.002Z,433.90
2023-03-15T14:43:06.166Z,451.30
2023-03-15T14:43:16.320Z,461.20
2023-03-15T14:43:26.359Z,462.90
2023-03-15T14:43:36.469Z,467.90
2023-03-15T14:43:47.292Z,483.40
2023-03-15T14:43:56.709Z,489.30
2023-03-15T14:44:06.789Z,486.00
2023-03-15T15:07:24.079Z,17.90
2023-03-15T15:07:34.506Z,18.40
2023-03-15T15:07:44.729Z,20.40
2023-03-15T15:07:55.077Z,20.80
2023-03-15T15:08:06.038Z,21.00
2023-03-15T15:08:15.179Z,20.70
2023-03-15T15:08:25.255Z,21.30
2023-03-15T15:08:35.303Z,20.90
2023-03-15T15:08:45.467Z,18.80
2023-03-15T15:08:55.515Z,19.60
2023-03-15T15:09:05.672Z,21.00
2023-03-15T15:09:15.744Z,22.00
2023-03-15T15:09:25.845Z,21.60
2023-03-15T15:09:35.926Z,23.60
2023-03-15T15:09:46.084Z,25.40
2023-03-15T15:09:56.166Z,25.70
2023-03-15T15:10:06.261Z,23.40
2023-03-15T15:10:17.308Z,21.60
2023-03-15T15:10:26.588Z,21.40
2023-03-15T15:10:36.820Z,19.40
2023-03-15T15:10:46.880Z,20.10
2023-03-15T15:10:56.955Z,17.10
2023-03-15T15:11:07.113Z,18.30
2023-03-15T15:11:17.231Z,20.60
2023-03-15T15:11:28.504Z,21.80
2023-03-15T15:11:37.746Z,23.00
2023-03-15T15:11:47.596Z,25.60
2023-03-15T15:11:58.646Z,32.00
2023-03-15T15:12:07.984Z,34.30
2023-03-15T15:12:18.079Z,33.10
2023-03-15T15:12:28.218Z,30.80
2023-03-15T15:12:38.272Z,29.80
2023-03-15T15:12:56.360Z,27.60
2023-03-15T15:13:09.393Z,22.60
2023-03-15T15:13:15.045Z,20.30
2023-03-15T15:13:25.058Z,20.10
2023-03-15T15:13:35.193Z,21.70
2023-03-15T15:13:45.418Z,21.20
2023-03-15T15:13:55.419Z,22.20
2023-03-15T15:14:05.512Z,22.60
2023-03-15T15:14:16.363Z,22.20
2023-03-15T15:14:25.775Z,22.80
2023-03-15T15:14:35.867Z,20.50
2023-03-15T15:14:46.100Z,22.90
2023-03-15T15:14:56.817Z,22.00
2023-03-15T15:15:07.344Z,24.50
2023-03-15T15:15:16.503Z,25.10
2023-03-15T15:15:26.628Z,25.30
2023-03-15T15:15:51.754Z,25.40
2023-03-15T15:15:59.943Z,23.80
2023-03-15T15:16:05.492Z,24.00
2023-03-15T15:16:15.405Z,22.90
2023-03-15T15:16:25.668Z,23.90
2023-03-15T15:16:35.653Z,24.40
2023-03-15T15:16:45.778Z,26.90
2023-03-15T15:16:57.861Z,24.80
2023-03-15T15:17:06.165Z,24.80
2023-03-15T15:17:16.295Z,28.20
2023-03-15T15:17:26.320Z,27.10
